sensor_id;sensor_type;location;lat;lon;timestamp;pressure;altitude;pressure_sealevel;temperature;humidity
42411;BME280;28056;51.112;0.984;2023-06-14T00:04:47;100595.40;;;15.54;60.96
42411;BME280;28056;51.112;0.984;2023-06-14T00:07:14;100590.97;;;14.95;62.70
42411;BME280;28056;51.112;0.984;2023-06-14T00:09:42;100593.43;;;15.26;62.13
42411;BME280;28056;51.112;0.984;2023-06-14T00:12:09;100584.38;;;15.07;63.10
42411;BME280;28056;51.112;0.984;2023-06-14T00:14:36;100596.18;;;15.07;64.58
42411;BME280;28056;51.112;0.984;2023-06-14T00:17:04;100588.52;;;15.30;62.58
42411;BME280;28056;51.112;0.984;2023-06-14T00:19:32;100591.46;;;14.34;66.56
42411;BME280;28056;51.112;0.984;2023-06-14T00:21:59;100597.22;;;15.22;63.97
42411;BME280;28056;51.112;0.984;2023-06-14T00:24:27;100591.50;;;14.67;65.70
42411;BME280;28056;51.112;0.984;2023-06-14T00:26:55;100593.84;;;15.36;64.03
42411;BME280;28056;51.112;0.984;2023-06-14T00:29:22;100587.33;;;15.40;62.83
42411;BME280;28056;51.112;0.984;2023-06-14T00:31:50;100586.35;;;15.14;64.13
42411;BME280;28056;51.112;0.984;2023-06-14T00:34:18;100589.05;;;15.41;63.57
42411;BME280;28056;51.112;0.984;2023-06-14T00:36:45;100590.80;;;15.50;62.81
42411;BME280;28056;51.112;0.984;2023-06-14T00:39:12;100591.45;;;15.62;62.50
42411;BME280;28056;51.112;0.984;2023-06-14T00:41:40;100593.73;;;15.22;63.95
42411;BME280;28056;51.112;0.984;2023-06-14T00:44:07;100594.83;;;15.05;65.11
42411;BME280;28056;51.112;0.984;2023-06-14T00:46:34;100595.55;;;15.78;62.27
42411;BME280;28056;51.112;0.984;2023-06-14T00:49:02;100594.47;;;15.67;61.94
42411;BME280;28056;51.112;0.984;2023-06-14T00:51:29;100595.76;;;16.10;60.61
42411;BME280;28056;51.112;0.984;2023-06-14T00:53:57;100594.83;;;15.85;60.92
42411;BME280;28056;51.112;0.984;2023-06-14T00:56:24;100593.21;;;16.36;59.61
42411;BME280;28056;51.112;0.984;2023-06-14T00:58:52;100595.35;;;15.30;62.23
42411;BME280;28056;51.112;0.984;2023-06-14T01:01:20;100585.20;;;14.67;65.01
42411;BME280;28056;51.112;0.984;2023-06-14T01:03:47;100592.54;;;15.76;62.51
42411;BME280;28056;51.112;0.984;2023-06-14T01:06:27;100592.77;;;16.13;61.88
42411;BME280;28056;51.112;0.984;2023-06-14T01:09:09;100589.40;;;15.26;64.98
42411;BME280;28056;51.112;0.984;2023-06-14T01:11:47;100587.97;;;15.69;62.13
42411;BME280;28056;51.112;0.984;2023-06-14T01:14:17;100588.50;;;15.84;61.78
42411;BME280;28056;51.112;0.984;2023-06-14T01:16:45;100582.49;;;15.15;63.77
42411;BME280;28056;51.112;0.984;2023-06-14T01:19:14;100592.30;;;16.23;61.34
42411;BME280;28056;51.112;0.984;2023-06-14T01:21:42;100588.17;;;16.19;61.90
42411;BME280;28056;51.112;0.984;2023-06-14T01:24:10;100589.04;;;16.01;62.91
42411;BME280;28056;51.112;0.984;2023-06-14T01:26:38;100585.39;;;15.99;61.35
42411;BME280;28056;51.112;0.984;2023-06-14T01:29:07;100586.43;;;16.16;60.29
42411;BME280;28056;51.112;0.984;2023-06-14T01:31:35;100582.89;;;16.21;60.22
42411;BME280;28056;51.112;0.984;2023-06-14T01:34:03;100589.69;;;16.41;59.20
42411;BME280;28056;51.112;0.984;2023-06-14T01:36:31;100584.94;;;16.39;60.16
42411;BME280;28056;51.112;0.984;2023-06-14T01:38:59;100585.12;;;16.28;60.21
42411;BME280;28056;51.112;0.984;2023-06-14T01:41:27;100588.31;;;15.69;61.05
42411;BME280;28056;51.112;0.984;2023-06-14T01:43:57;100586.36;;;16.31;60.89
42411;BME280;28056;51.112;0.984;2023-06-14T01:46:25;100585.97;;;16.55;60.57
42411;BME280;28056;51.112;0.984;2023-06-14T01:48:53;100585.20;;;16.73;58.96
42411;BME280;28056;51.112;0.984;2023-06-14T01:51:21;100578.15;;;16.04;61.51
42411;BME280;28056;51.112;0.984;2023-06-14T01:53:48;100581.46;;;15.76;62.35
42411;BME280;28056;51.112;0.984;2023-06-14T01:56:15;100586.62;;;15.78;62.10
42411;BME280;28056;51.112;0.984;2023-06-14T01:58:43;100580.19;;;16.33;61.32
42411;BME280;28056;51.112;0.984;2023-06-14T02:01:10;100580.30;;;16.03;62.18
42411;BME280;28056;51.112;0.984;2023-06-14T02:03:38;100578.43;;;15.59;63.87
42411;BME280;28056;51.112;0.984;2023-06-14T02:06:06;100576.79;;;16.04;61.84
42411;BME280;28056;51.112;0.984;2023-06-14T02:08:33;100580.21;;;16.46;61.01
42411;BME280;28056;51.112;0.984;2023-06-14T02:11:01;100576.56;;;15.80;61.79
42411;BME280;28056;51.112;0.984;2023-06-14T02:13:28;100574.41;;;16.22;61.99
42411;BME280;28056;51.112;0.984;2023-06-14T02:15:56;100574.80;;;16.12;63.48
42411;BME280;28056;51.112;0.984;2023-06-14T02:18:23;100574.96;;;16.09;63.07
42411;BME280;28056;51.112;0.984;2023-06-14T02:20:51;100573.52;;;16.02;63.57
42411;BME280;28056;51.112;0.984;2023-06-14T02:23:19;100575.97;;;16.00;63.63
42411;BME280;28056;51.112;0.984;2023-06-14T02:25:47;100572.17;;;16.30;61.75
42411;BME280;28056;51.112;0.984;2023-06-14T02:28:14;100568.00;;;16.09;62.77
42411;BME280;28056;51.112;0.984;2023-06-14T02:30:41;100572.75;;;15.56;64.77
42411;BME280;28056;51.112;0.984;2023-06-14T02:33:09;100571.25;;;15.88;63.77
42411;BME280;28056;51.112;0.984;2023-06-14T02:35:37;100568.97;;;16.23;62.57
42411;BME280;28056;51.112;0.984;2023-06-14T02:38:04;100566.84;;;16.16;62.71
42411;BME280;28056;51.112;0.984;2023-06-14T02:40:32;100567.23;;;15.83;63.76
42411;BME280;28056;51.112;0.984;2023-06-14T02:42:59;100567.17;;;15.19;65.97
42411;BME280;28056;51.112;0.984;2023-06-14T02:45:26;100571.14;;;15.72;65.54
42411;BME280;28056;51.112;0.984;2023-06-14T02:47:53;100574.70;;;15.41;66.59
42411;BME280;28056;51.112;0.984;2023-06-14T02:50:21;100574.41;;;15.88;64.75
42411;BME280;28056;51.112;0.984;2023-06-14T02:52:49;100573.61;;;16.02;64.79
42411;BME280;28056;51.112;0.984;2023-06-14T02:55:17;100573.46;;;15.59;66.04
42411;BME280;28056;51.112;0.984;2023-06-14T02:57:49;100576.66;;;14.97;68.93
42411;BME280;28056;51.112;0.984;2023-06-14T03:00:17;100577.35;;;14.87;68.64
42411;BME280;28056;51.112;0.984;2023-06-14T03:02:45;100572.68;;;15.67;66.32
42411;BME280;28056;51.112;0.984;2023-06-14T03:05:13;100571.72;;;14.87;68.55
42411;BME280;28056;51.112;0.984;2023-06-14T03:07:40;100563.87;;;15.06;67.60
42411;BME280;28056;51.112;0.984;2023-06-14T03:10:09;100564.33;;;14.97;67.86
42411;BME280;28056;51.112;0.984;2023-06-14T03:12:36;100566.02;;;15.08;67.87
42411;BME280;28056;51.112;0.984;2023-06-14T03:15:04;100563.69;;;15.58;66.74
42411;BME280;28056;51.112;0.984;2023-06-14T03:17:31;100566.39;;;14.76;67.01
42411;BME280;28056;51.112;0.984;2023-06-14T03:19:59;100562.08;;;15.32;67.09
42411;BME280;28056;51.112;0.984;2023-06-14T03:22:27;100569.82;;;14.81;68.96
42411;BME280;28056;51.112;0.984;2023-06-14T03:24:54;100569.93;;;14.55;69.58
42411;BME280;28056;51.112;0.984;2023-06-14T03:27:22;100570.54;;;14.72;68.04
42411;BME280;28056;51.112;0.984;2023-06-14T03:29:50;100569.90;;;14.18;70.38
42411;BME280;28056;51.112;0.984;2023-06-14T03:32:17;100569.84;;;14.23;71.79
42411;BME280;28056;51.112;0.984;2023-06-14T03:34:45;100569.30;;;14.39;69.73
42411;BME280;28056;51.112;0.984;2023-06-14T03:37:13;100575.34;;;14.32;70.38
42411;BME280;28056;51.112;0.984;2023-06-14T03:39:40;100575.84;;;14.60;69.40
42411;BME280;28056;51.112;0.984;2023-06-14T03:42:08;100581.45;;;14.24;71.02
42411;BME280;28056;51.112;0.984;2023-06-14T03:44:36;100583.08;;;14.93;68.15
42411;BME280;28056;51.112;0.984;2023-06-14T03:47:04;100582.90;;;14.68;68.54
42411;BME280;28056;51.112;0.984;2023-06-14T03:49:32;100578.64;;;15.31;67.85
42411;BME280;28056;51.112;0.984;2023-06-14T03:51:59;100581.44;;;13.88;71.58
42411;BME280;28056;51.112;0.984;2023-06-14T03:54:31;100585.49;;;14.50;69.13
42411;BME280;28056;51.112;0.984;2023-06-14T03:56:59;100587.06;;;14.71;70.45
42411;BME280;28056;51.112;0.984;2023-06-14T03:59:27;100586.75;;;14.39;71.18
42411;BME280;28056;51.112;0.984;2023-06-14T04:01:55;100589.61;;;14.27;71.72
42411;BME280;28056;51.112;0.984;2023-06-14T04:04:22;100591.03;;;15.14;69.22
42411;BME280;28056;51.112;0.984;2023-06-14T04:06:50;100587.33;;;15.24;67.71
42411;BME280;28056;51.112;0.984;2023-06-14T04:09:17;100590.71;;;14.91;69.21
42411;BME280;28056;51.112;0.984;2023-06-14T04:11:45;100590.76;;;15.06;68.69
42411;BME280;28056;51.112;0.984;2023-06-14T04:14:12;100592.18;;;14.84;69.85
42411;BME280;28056;51.112;0.984;2023-06-14T04:16:40;100588.40;;;15.77;67.20
42411;BME280;28056;51.112;0.984;2023-06-14T04:19:08;100587.53;;;15.36;66.69
42411;BME280;28056;51.112;0.984;2023-06-14T04:21:35;100588.82;;;16.03;65.50
42411;BME280;28056;51.112;0.984;2023-06-14T04:24:03;100590.89;;;15.31;66.75
42411;BME280;28056;51.112;0.984;2023-06-14T04:26:30;100594.30;;;15.48;67.91
42411;BME280;28056;51.112;0.984;2023-06-14T04:28:57;100601.47;;;15.05;68.95
42411;BME280;28056;51.112;0.984;2023-06-14T04:31:25;100599.41;;;15.27;69.01
42411;BME280;28056;51.112;0.984;2023-06-14T04:33:53;100603.12;;;15.95;66.30
42411;BME280;28056;51.112;0.984;2023-06-14T04:36:20;100603.66;;;15.39;68.01
42411;BME280;28056;51.112;0.984;2023-06-14T04:38:48;100608.99;;;15.11;69.19
42411;BME280;28056;51.112;0.984;2023-06-14T04:41:15;100606.54;;;15.25;69.50
42411;BME280;28056;51.112;0.984;2023-06-14T04:43:42;100608.67;;;15.97;67.36
42411;BME280;28056;51.112;0.984;2023-06-14T04:46:10;100609.98;;;16.00;66.60
42411;BME280;28056;51.112;0.984;2023-06-14T04:48:38;100611.52;;;15.32;68.92
42411;BME280;28056;51.112;0.984;2023-06-14T04:51:06;100609.79;;;15.72;68.67
42411;BME280;28056;51.112;0.984;2023-06-14T04:53:33;100608.94;;;15.86;67.80
42411;BME280;28056;51.112;0.984;2023-06-14T04:56:01;100612.72;;;15.44;68.31
42411;BME280;28056;51.112;0.984;2023-06-14T04:58:29;100620.48;;;15.86;67.86
42411;BME280;28056;51.112;0.984;2023-06-14T05:00:56;100625.65;;;15.88;68.06
42411;BME280;28056;51.112;0.984;2023-06-14T05:03:23;100624.98;;;15.97;68.13
42411;BME280;28056;51.112;0.984;2023-06-14T05:05:50;100625.67;;;16.28;67.07
42411;BME280;28056;51.112;0.984;2023-06-14T05:08:18;100630.15;;;15.92;67.73
42411;BME280;28056;51.112;0.984;2023-06-14T05:10:45;100632.04;;;16.30;65.30
42411;BME280;28056;51.112;0.984;2023-06-14T05:13:18;100633.80;;;16.27;65.38
42411;BME280;28056;51.112;0.984;2023-06-14T05:15:45;100634.79;;;16.53;65.65
42411;BME280;28056;51.112;0.984;2023-06-14T05:18:13;100637.53;;;15.91;66.21
42411;BME280;28056;51.112;0.984;2023-06-14T05:20:41;100637.99;;;16.16;65.78
42411;BME280;28056;51.112;0.984;2023-06-14T05:23:13;100641.99;;;15.99;66.48
42411;BME280;28056;51.112;0.984;2023-06-14T05:25:42;100642.18;;;16.27;65.29
42411;BME280;28056;51.112;0.984;2023-06-14T05:28:11;100643.24;;;15.94;66.84
42411;BME280;28056;51.112;0.984;2023-06-14T05:30:39;100645.44;;;16.22;65.97
42411;BME280;28056;51.112;0.984;2023-06-14T05:33:07;100641.32;;;16.20;66.55
42411;BME280;28056;51.112;0.984;2023-06-14T05:35:35;100645.27;;;15.92;67.73
42411;BME280;28056;51.112;0.984;2023-06-14T05:38:07;100650.02;;;16.02;67.11
42411;BME280;28056;51.112;0.984;2023-06-14T05:40:35;100650.62;;;15.94;68.40
42411;BME280;28056;51.112;0.984;2023-06-14T05:43:03;100652.50;;;16.27;67.88
42411;BME280;28056;51.112;0.984;2023-06-14T05:45:30;100655.10;;;15.18;69.71
42411;BME280;28056;51.112;0.984;2023-06-14T05:47:58;100651.10;;;15.76;68.36
42411;BME280;28056;51.112;0.984;2023-06-14T05:50:25;100656.13;;;16.30;67.08
42411;BME280;28056;51.112;0.984;2023-06-14T05:52:53;100654.94;;;15.81;68.81
42411;BME280;28056;51.112;0.984;2023-06-14T05:55:21;100655.58;;;16.79;66.75
42411;BME280;28056;51.112;0.984;2023-06-14T05:57:48;100655.00;;;17.27;65.25
42411;BME280;28056;51.112;0.984;2023-06-14T06:00:17;100654.53;;;16.73;66.37
42411;BME280;28056;51.112;0.984;2023-06-14T06:02:44;100658.23;;;16.81;66.45
42411;BME280;28056;51.112;0.984;2023-06-14T06:05:12;100657.55;;;16.80;66.39
42411;BME280;28056;51.112;0.984;2023-06-14T06:07:40;100661.38;;;17.18;64.57
42411;BME280;28056;51.112;0.984;2023-06-14T06:10:08;100664.03;;;17.12;65.82
42411;BME280;28056;51.112;0.984;2023-06-14T06:12:37;100666.02;;;16.93;66.17
42411;BME280;28056;51.112;0.984;2023-06-14T06:15:05;100665.39;;;16.88;67.01
42411;BME280;28056;51.112;0.984;2023-06-14T06:17:32;100668.67;;;17.64;64.67
42411;BME280;28056;51.112;0.984;2023-06-14T06:19:59;100671.09;;;16.94;64.38
42411;BME280;28056;51.112;0.984;2023-06-14T06:22:26;100672.84;;;17.08;66.45
42411;BME280;28056;51.112;0.984;2023-06-14T06:24:54;100674.40;;;17.82;64.21
42411;BME280;28056;51.112;0.984;2023-06-14T06:27:27;100679.18;;;18.11;63.30
42411;BME280;28056;51.112;0.984;2023-06-14T06:29:55;100677.68;;;18.27;62.56
42411;BME280;28056;51.112;0.984;2023-06-14T06:32:22;100681.45;;;17.79;64.20
42411;BME280;28056;51.112;0.984;2023-06-14T06:34:49;100680.46;;;18.06;63.72
42411;BME280;28056;51.112;0.984;2023-06-14T06:37:22;100678.57;;;17.56;64.23
42411;BME280;28056;51.112;0.984;2023-06-14T06:39:50;100678.64;;;18.37;62.03
42411;BME280;28056;51.112;0.984;2023-06-14T06:42:17;100679.04;;;17.35;65.01
42411;BME280;28056;51.112;0.984;2023-06-14T06:44:44;100678.65;;;18.39;62.75
42411;BME280;28056;51.112;0.984;2023-06-14T06:47:11;100682.97;;;18.86;61.40
42411;BME280;28056;51.112;0.984;2023-06-14T06:49:39;100681.08;;;18.41;62.48
42411;BME280;28056;51.112;0.984;2023-06-14T06:52:07;100685.46;;;18.92;61.82
42411;BME280;28056;51.112;0.984;2023-06-14T06:54:35;100689.01;;;19.24;61.51
42411;BME280;28056;51.112;0.984;2023-06-14T06:57:03;100688.18;;;18.28;62.09
42411;BME280;28056;51.112;0.984;2023-06-14T06:59:30;100691.56;;;19.08;60.50
42411;BME280;28056;51.112;0.984;2023-06-14T07:01:58;100692.37;;;19.04;61.18
42411;BME280;28056;51.112;0.984;2023-06-14T07:04:26;100693.50;;;19.01;61.32
42411;BME280;28056;51.112;0.984;2023-06-14T07:06:53;100691.33;;;19.42;60.68
42411;BME280;28056;51.112;0.984;2023-06-14T07:09:21;100691.76;;;19.36;60.87
42411;BME280;28056;51.112;0.984;2023-06-14T07:11:48;100695.73;;;19.79;59.71
42411;BME280;28056;51.112;0.984;2023-06-14T07:14:15;100695.22;;;19.56;60.59
42411;BME280;28056;51.112;0.984;2023-06-14T07:16:43;100696.46;;;19.64;60.26
42411;BME280;28056;51.112;0.984;2023-06-14T07:19:10;100700.80;;;19.75;58.00
42411;BME280;28056;51.112;0.984;2023-06-14T07:21:38;100706.03;;;19.41;58.51
42411;BME280;28056;51.112;0.984;2023-06-14T07:24:06;100708.98;;;20.03;58.72
42411;BME280;28056;51.112;0.984;2023-06-14T07:26:33;100712.30;;;19.33;59.69
42411;BME280;28056;51.112;0.984;2023-06-14T07:29:01;100710.90;;;19.29;59.90
42411;BME280;28056;51.112;0.984;2023-06-14T07:31:28;100710.95;;;19.37;61.07
42411;BME280;28056;51.112;0.984;2023-06-14T07:33:56;100712.84;;;19.29;62.12
42411;BME280;28056;51.112;0.984;2023-06-14T07:36:23;100713.44;;;20.49;58.98
42411;BME280;28056;51.112;0.984;2023-06-14T07:38:51;100717.41;;;19.36;62.26
42411;BME280;28056;51.112;0.984;2023-06-14T07:41:18;100717.17;;;19.83;59.86
42411;BME280;28056;51.112;0.984;2023-06-14T07:43:45;100717.54;;;20.69;59.10
42411;BME280;28056;51.112;0.984;2023-06-14T07:46:12;100719.00;;;20.57;58.12
42411;BME280;28056;51.112;0.984;2023-06-14T07:48:39;100720.59;;;19.94;58.97
42411;BME280;28056;51.112;0.984;2023-06-14T07:51:07;100717.99;;;20.85;59.12
42411;BME280;28056;51.112;0.984;2023-06-14T07:53:34;100718.10;;;20.96;57.23
42411;BME280;28056;51.112;0.984;2023-06-14T07:56:02;100720.88;;;21.32;56.99
42411;BME280;28056;51.112;0.984;2023-06-14T07:58:29;100719.36;;;21.88;56.54
42411;BME280;28056;51.112;0.984;2023-06-14T08:00:57;100720.43;;;21.71;56.98
42411;BME280;28056;51.112;0.984;2023-06-14T08:03:24;100720.19;;;21.76;56.41
42411;BME280;28056;51.112;0.984;2023-06-14T08:05:52;100723.82;;;22.44;54.07
42411;BME280;28056;51.112;0.984;2023-06-14T08:08:20;100725.35;;;21.78;52.97
42411;BME280;28056;51.112;0.984;2023-06-14T08:10:47;100726.63;;;22.24;54.08
42411;BME280;28056;51.112;0.984;2023-06-14T08:13:15;100727.63;;;23.07;51.98
42411;BME280;28056;51.112;0.984;2023-06-14T08:15:42;100726.04;;;22.11;50.94
42411;BME280;28056;51.112;0.984;2023-06-14T08:18:09;100725.36;;;21.73;51.58
42411;BME280;28056;51.112;0.984;2023-06-14T08:20:37;100729.04;;;22.27;51.90
42411;BME280;28056;51.112;0.984;2023-06-14T08:23:04;100728.04;;;23.25;50.75
42411;BME280;28056;51.112;0.984;2023-06-14T08:25:32;100727.99;;;22.86;49.89
42411;BME280;28056;51.112;0.984;2023-06-14T08:27:59;100725.71;;;22.63;53.28
42411;BME280;28056;51.112;0.984;2023-06-14T08:30:27;100726.64;;;23.52;48.59
42411;BME280;28056;51.112;0.984;2023-06-14T08:32:54;100728.35;;;23.15;46.90
42411;BME280;28056;51.112;0.984;2023-06-14T08:35:21;100730.63;;;23.42;47.72
42411;BME280;28056;51.112;0.984;2023-06-14T08:37:49;100734.20;;;23.87;47.66
42411;BME280;28056;51.112;0.984;2023-06-14T08:40:19;100734.24;;;24.60;48.83
42411;BME280;28056;51.112;0.984;2023-06-14T08:42:51;100735.58;;;24.89;45.47
42411;BME280;28056;51.112;0.984;2023-06-14T08:45:19;100735.68;;;24.87;46.44
42411;BME280;28056;51.112;0.984;2023-06-14T08:47:47;100740.06;;;24.89;48.54
42411;BME280;28056;51.112;0.984;2023-06-14T08:50:15;100738.44;;;25.77;44.94
42411;BME280;28056;51.112;0.984;2023-06-14T08:52:45;100739.83;;;25.96;43.53
42411;BME280;28056;51.112;0.984;2023-06-14T08:55:15;100738.35;;;25.91;43.21
42411;BME280;28056;51.112;0.984;2023-06-14T08:57:44;100738.12;;;25.96;41.81
42411;BME280;28056;51.112;0.984;2023-06-14T09:00:13;100741.42;;;26.34;43.22
42411;BME280;28056;51.112;0.984;2023-06-14T09:02:40;100739.70;;;25.73;42.98
42411;BME280;28056;51.112;0.984;2023-06-14T09:05:08;100740.45;;;26.38;43.66
42411;BME280;28056;51.112;0.984;2023-06-14T09:07:36;100738.81;;;26.56;41.05
42411;BME280;28056;51.112;0.984;2023-06-14T09:10:08;100747.50;;;26.88;41.29
42411;BME280;28056;51.112;0.984;2023-06-14T09:12:35;100749.08;;;26.62;41.79
42411;BME280;28056;51.112;0.984;2023-06-14T09:15:03;100750.28;;;26.33;39.72
42411;BME280;28056;51.112;0.984;2023-06-14T09:17:32;100745.59;;;26.96;42.12
42411;BME280;28056;51.112;0.984;2023-06-14T09:20:00;100748.64;;;27.26;42.04
42411;BME280;28056;51.112;0.984;2023-06-14T09:22:30;100748.79;;;26.47;39.84
42411;BME280;28056;51.112;0.984;2023-06-14T09:24:57;100751.02;;;27.10;42.35
42411;BME280;28056;51.112;0.984;2023-06-14T09:27:25;100749.51;;;27.18;39.57
42411;BME280;28056;51.112;0.984;2023-06-14T09:29:53;100751.47;;;26.54;39.43
42411;BME280;28056;51.112;0.984;2023-06-14T09:32:20;100752.38;;;27.65;40.68
42411;BME280;28056;51.112;0.984;2023-06-14T09:34:48;100753.53;;;27.25;41.58
42411;BME280;28056;51.112;0.984;2023-06-14T09:37:27;100754.61;;;27.50;39.65
42411;BME280;28056;51.112;0.984;2023-06-14T09:39:55;100754.86;;;28.34;36.78
42411;BME280;28056;51.112;0.984;2023-06-14T09:42:22;100758.27;;;28.23;38.41
42411;BME280;28056;51.112;0.984;2023-06-14T09:44:49;100756.11;;;27.73;34.86
42411;BME280;28056;51.112;0.984;2023-06-14T09:47:17;100758.94;;;28.17;37.99
42411;BME280;28056;51.112;0.984;2023-06-14T09:49:44;100755.24;;;27.94;37.29
42411;BME280;28056;51.112;0.984;2023-06-14T09:52:15;100757.11;;;29.19;36.70
42411;BME280;28056;51.112;0.984;2023-06-14T09:54:44;100759.73;;;28.42;36.76
42411;BME280;28056;51.112;0.984;2023-06-14T09:57:12;100758.88;;;28.11;38.09
42411;BME280;28056;51.112;0.984;2023-06-14T09:59:42;100766.27;;;28.87;34.67
42411;BME280;28056;51.112;0.984;2023-06-14T10:02:17;100763.54;;;29.59;36.87
42411;BME280;28056;51.112;0.984;2023-06-14T10:04:49;100765.17;;;29.97;36.11
42411;BME280;28056;51.112;0.984;2023-06-14T10:07:19;100769.14;;;28.45;35.12
42411;BME280;28056;51.112;0.984;2023-06-14T10:09:47;100768.97;;;28.13;34.94
42411;BME280;28056;51.112;0.984;2023-06-14T10:12:16;100771.05;;;29.24;36.32
42411;BME280;28056;51.112;0.984;2023-06-14T10:14:43;100770.44;;;29.50;34.91
42411;BME280;28056;51.112;0.984;2023-06-14T10:17:20;100771.12;;;30.18;35.07
42411;BME280;28056;51.112;0.984;2023-06-14T10:19:54;100772.27;;;29.64;34.82
42411;BME280;28056;51.112;0.984;2023-06-14T10:22:26;100772.37;;;29.99;36.41
42411;BME280;28056;51.112;0.984;2023-06-14T10:24:56;100770.75;;;29.27;34.44
42411;BME280;28056;51.112;0.984;2023-06-14T10:27:24;100774.74;;;29.57;35.14
42411;BME280;28056;51.112;0.984;2023-06-14T10:30:08;100771.46;;;30.01;33.99
42411;BME280;28056;51.112;0.984;2023-06-14T10:33:03;100773.87;;;28.88;35.75
42411;BME280;28056;51.112;0.984;2023-06-14T10:35:31;100774.31;;;29.56;39.01
42411;BME280;28056;51.112;0.984;2023-06-14T10:38:07;100774.54;;;29.85;35.65
42411;BME280;28056;51.112;0.984;2023-06-14T10:40:35;100778.11;;;29.17;39.03
42411;BME280;28056;51.112;0.984;2023-06-14T10:43:21;100776.50;;;29.02;35.23
42411;BME280;28056;51.112;0.984;2023-06-14T10:46:21;100780.83;;;30.20;35.93
42411;BME280;28056;51.112;0.984;2023-06-14T10:48:57;100780.20;;;30.40;35.83
42411;BME280;28056;51.112;0.984;2023-06-14T10:51:29;100779.83;;;29.92;32.55
42411;BME280;28056;51.112;0.984;2023-06-14T10:53:59;100774.29;;;30.65;30.59
42411;BME280;28056;51.112;0.984;2023-06-14T10:56:28;100773.91;;;30.91;35.93
42411;BME280;28056;51.112;0.984;2023-06-14T10:58:57;100777.84;;;30.63;33.76
42411;BME280;28056;51.112;0.984;2023-06-14T11:01:35;100780.28;;;31.36;33.89
42411;BME280;28056;51.112;0.984;2023-06-14T11:04:11;100775.57;;;31.72;33.40
42411;BME280;28056;51.112;0.984;2023-06-14T11:06:46;100777.53;;;31.08;29.27
42411;BME280;28056;51.112;0.984;2023-06-14T11:09:51;100777.98;;;30.89;31.76
42411;BME280;28056;51.112;0.984;2023-06-14T11:12:23;100780.90;;;30.06;34.80
42411;BME280;28056;51.112;0.984;2023-06-14T11:14:52;100778.04;;;30.86;32.60
42411;BME280;28056;51.112;0.984;2023-06-14T11:17:19;100780.20;;;30.76;32.50
42411;BME280;28056;51.112;0.984;2023-06-14T11:20:07;100775.41;;;31.24;32.62
42411;BME280;28056;51.112;0.984;2023-06-14T11:22:40;100773.93;;;31.05;30.14
42411;BME280;28056;51.112;0.984;2023-06-14T11:25:09;100775.09;;;30.33;30.01
42411;BME280;28056;51.112;0.984;2023-06-14T11:27:36;100773.54;;;30.90;33.94
42411;BME280;28056;51.112;0.984;2023-06-14T11:30:06;100769.95;;;31.18;35.56
42411;BME280;28056;51.112;0.984;2023-06-14T11:32:34;100771.81;;;31.97;30.66
42411;BME280;28056;51.112;0.984;2023-06-14T11:35:01;100769.91;;;32.35;32.74
42411;BME280;28056;51.112;0.984;2023-06-14T11:37:29;100762.11;;;31.82;33.37
42411;BME280;28056;51.112;0.984;2023-06-14T11:39:57;100763.17;;;31.77;27.34
42411;BME280;28056;51.112;0.984;2023-06-14T11:42:27;100763.88;;;31.52;29.18
42411;BME280;28056;51.112;0.984;2023-06-14T11:44:54;100765.88;;;31.86;29.11
42411;BME280;28056;51.112;0.984;2023-06-14T11:47:22;100767.04;;;32.11;27.56
42411;BME280;28056;51.112;0.984;2023-06-14T11:49:49;100762.75;;;32.48;28.35
42411;BME280;28056;51.112;0.984;2023-06-14T11:52:17;100755.95;;;31.69;26.22
42411;BME280;28056;51.112;0.984;2023-06-14T11:54:47;100758.02;;;32.25;25.32
42411;BME280;28056;51.112;0.984;2023-06-14T11:57:18;100754.85;;;32.10;27.75
42411;BME280;28056;51.112;0.984;2023-06-14T11:59:45;100754.17;;;32.88;25.16
42411;BME280;28056;51.112;0.984;2023-06-14T12:02:14;100759.14;;;32.15;28.93
42411;BME280;28056;51.112;0.984;2023-06-14T12:04:42;100759.92;;;31.71;30.29
42411;BME280;28056;51.112;0.984;2023-06-14T12:07:09;100765.93;;;32.64;27.62
42411;BME280;28056;51.112;0.984;2023-06-14T12:09:37;100765.33;;;33.32;29.16
42411;BME280;28056;51.112;0.984;2023-06-14T12:12:05;100763.54;;;33.51;27.99
42411;BME280;28056;51.112;0.984;2023-06-14T12:14:32;100759.80;;;33.42;27.78
42411;BME280;28056;51.112;0.984;2023-06-14T12:17:04;100762.34;;;32.90;27.50
42411;BME280;28056;51.112;0.984;2023-06-14T12:19:32;100763.10;;;32.30;27.64
42411;BME280;28056;51.112;0.984;2023-06-14T12:22:00;100760.17;;;32.78;32.35
42411;BME280;28056;51.112;0.984;2023-06-14T12:24:28;100761.65;;;33.18;26.02
42411;BME280;28056;51.112;0.984;2023-06-14T12:26:57;100762.58;;;33.40;28.21
42411;BME280;28056;51.112;0.984;2023-06-14T12:29:25;100759.21;;;33.28;25.90
42411;BME280;28056;51.112;0.984;2023-06-14T12:31:52;100761.59;;;33.42;27.00
42411;BME280;28056;51.112;0.984;2023-06-14T12:34:20;100762.24;;;33.34;23.55
42411;BME280;28056;51.112;0.984;2023-06-14T12:36:47;100764.21;;;33.15;24.98
42411;BME280;28056;51.112;0.984;2023-06-14T12:39:15;100770.88;;;33.50;25.84
42411;BME280;28056;51.112;0.984;2023-06-14T12:41:42;100774.92;;;33.85;29.76
42411;BME280;28056;51.112;0.984;2023-06-14T12:44:10;100775.52;;;33.13;25.98
42411;BME280;28056;51.112;0.984;2023-06-14T12:46:37;100774.38;;;33.36;24.02
42411;BME280;28056;51.112;0.984;2023-06-14T12:49:04;100774.24;;;34.43;23.16
42411;BME280;28056;51.112;0.984;2023-06-14T12:51:31;100778.02;;;34.35;25.43
42411;BME280;28056;51.112;0.984;2023-06-14T12:53:59;100769.21;;;32.84;23.20
42411;BME280;28056;51.112;0.984;2023-06-14T12:56:26;100771.88;;;33.75;23.00
42411;BME280;28056;51.112;0.984;2023-06-14T12:58:53;100772.04;;;33.24;23.89
42411;BME280;28056;51.112;0.984;2023-06-14T13:01:21;100771.52;;;33.47;21.98